LEMH/MAH METAR and TAF weather

Enter ICAO airport designator
Station Type Date Time Source
LEMH METAR 2019/08/23 15:00 UTC NOAA

LEMH 231500Z 06008KT 020V110 9999 SCT025 28/21 Q1018


Station Type Date Time Source
LEMH Decoded METAR 2019/08/23 15:00 UTC NOAA

Station name not available
Aug 23, 2019 - 11:00 AM EDT / 2019.08.23 1500 UTC
Wind: from the ENE (060 degrees) at 9 MPH (8 KT) (direction variable):0
Visibility: greater than 7 mile(s):0
Sky conditions: partly cloudy
Temperature: 82 F (28 C)
Dew Point: 69 F (21 C)
Relative Humidity: 65%
Pressure (altimeter): 30.06 in. Hg (1018 hPa)
ob: LEMH 231500Z 06008KT 020V110 9999 SCT025 28/21 Q1018
cycle: 15

Station Type Date Time Source
LEMH TAF 2019/08/23 15:30 UTC NOAA

TAF LEMH 231400Z 2315/2415 04010KT 9999 FEW020 TX29/2412Z TN20/2405Z PROB30
TEMPO 2315/2318 FEW030TCU
BECMG 2316/2318 VRB04KT PROB30
TEMPO 2323/2406 3000 BR
BECMG 2406/2408 09010KT

Example: see airport list